sensor_id;sensor_type;location;lat;lon;timestamp;P1;durP1;ratioP1;P2;durP2;ratioP2
18104;SDS011;9179;50.968;3.134;2023-07-20T00:00:09;14.02;;;7.70;;
18104;SDS011;9179;50.968;3.134;2023-07-20T00:02:39;10.10;;;7.07;;
18104;SDS011;9179;50.968;3.134;2023-07-20T00:05:06;10.38;;;6.43;;
18104;SDS011;9179;50.968;3.134;2023-07-20T00:07:33;9.25;;;6.93;;
18104;SDS011;9179;50.968;3.134;2023-07-20T00:10:00;7.80;;;6.97;;
18104;SDS011;9179;50.968;3.134;2023-07-20T00:12:27;8.50;;;7.00;;
18104;SDS011;9179;50.968;3.134;2023-07-20T00:14:54;11.23;;;6.38;;
18104;SDS011;9179;50.968;3.134;2023-07-20T00:17:22;8.88;;;7.53;;
18104;SDS011;9179;50.968;3.134;2023-07-20T00:19:49;9.70;;;8.18;;
18104;SDS011;9179;50.968;3.134;2023-07-20T00:22:15;10.05;;;7.75;;
18104;SDS011;9179;50.968;3.134;2023-07-20T00:24:42;13.02;;;7.97;;
18104;SDS011;9179;50.968;3.134;2023-07-20T00:27:09;10.23;;;7.40;;
18104;SDS011;9179;50.968;3.134;2023-07-20T00:29:36;13.38;;;7.57;;
18104;SDS011;9179;50.968;3.134;2023-07-20T00:32:03;15.48;;;8.30;;
18104;SDS011;9179;50.968;3.134;2023-07-20T00:34:32;14.55;;;7.68;;
18104;SDS011;9179;50.968;3.134;2023-07-20T00:36:59;12.20;;;8.57;;
18104;SDS011;9179;50.968;3.134;2023-07-20T00:39:26;10.82;;;8.23;;
18104;SDS011;9179;50.968;3.134;2023-07-20T00:41:53;17.33;;;9.98;;
18104;SDS011;9179;50.968;3.134;2023-07-20T00:44:20;10.88;;;8.02;;
18104;SDS011;9179;50.968;3.134;2023-07-20T00:46:47;15.32;;;8.05;;
18104;SDS011;9179;50.968;3.134;2023-07-20T00:49:14;14.15;;;8.43;;
18104;SDS011;9179;50.968;3.134;2023-07-20T00:51:47;13.15;;;8.43;;
18104;SDS011;9179;50.968;3.134;2023-07-20T00:54:15;11.95;;;8.88;;
18104;SDS011;9179;50.968;3.134;2023-07-20T00:56:42;9.20;;;8.32;;
18104;SDS011;9179;50.968;3.134;2023-07-20T00:59:10;14.80;;;10.52;;
18104;SDS011;9179;50.968;3.134;2023-07-20T01:01:37;9.52;;;8.40;;
18104;SDS011;9179;50.968;3.134;2023-07-20T01:04:04;14.18;;;8.48;;
18104;SDS011;9179;50.968;3.134;2023-07-20T01:06:34;11.85;;;9.07;;
18104;SDS011;9179;50.968;3.134;2023-07-20T01:09:13;9.02;;;7.75;;
18104;SDS011;9179;50.968;3.134;2023-07-20T01:11:43;12.27;;;8.45;;
18104;SDS011;9179;50.968;3.134;2023-07-20T01:14:18;14.57;;;8.65;;
18104;SDS011;9179;50.968;3.134;2023-07-20T01:16:45;11.25;;;8.88;;
18104;SDS011;9179;50.968;3.134;2023-07-20T01:19:14;14.23;;;8.82;;
18104;SDS011;9179;50.968;3.134;2023-07-20T01:21:42;10.77;;;7.93;;
18104;SDS011;9179;50.968;3.134;2023-07-20T01:30:33;10.23;;;8.23;;
18104;SDS011;9179;50.968;3.134;2023-07-20T01:33:12;10.38;;;9.10;;
18104;SDS011;9179;50.968;3.134;2023-07-20T01:35:41;9.70;;;8.68;;
18104;SDS011;9179;50.968;3.134;2023-07-20T01:38:11;12.23;;;9.10;;
18104;SDS011;9179;50.968;3.134;2023-07-20T01:40:39;10.68;;;8.05;;
18104;SDS011;9179;50.968;3.134;2023-07-20T01:43:07;12.88;;;9.50;;
18104;SDS011;9179;50.968;3.134;2023-07-20T01:45:34;9.80;;;8.80;;
18104;SDS011;9179;50.968;3.134;2023-07-20T01:48:01;11.38;;;8.55;;
18104;SDS011;9179;50.968;3.134;2023-07-20T01:50:29;11.05;;;9.00;;
18104;SDS011;9179;50.968;3.134;2023-07-20T01:52:56;8.45;;;7.63;;
18104;SDS011;9179;50.968;3.134;2023-07-20T01:55:23;9.88;;;8.80;;
18104;SDS011;9179;50.968;3.134;2023-07-20T01:57:50;9.93;;;7.90;;
18104;SDS011;9179;50.968;3.134;2023-07-20T02:00:17;9.60;;;8.65;;
18104;SDS011;9179;50.968;3.134;2023-07-20T02:02:46;8.45;;;7.65;;
18104;SDS011;9179;50.968;3.134;2023-07-20T02:05:13;10.85;;;8.35;;
18104;SDS011;9179;50.968;3.134;2023-07-20T02:07:41;9.38;;;8.07;;
18104;SDS011;9179;50.968;3.134;2023-07-20T02:10:09;10.82;;;9.50;;
18104;SDS011;9179;50.968;3.134;2023-07-20T02:12:36;9.02;;;8.07;;
18104;SDS011;9179;50.968;3.134;2023-07-20T02:15:03;9.70;;;8.70;;
18104;SDS011;9179;50.968;3.134;2023-07-20T02:17:30;10.32;;;9.32;;
18104;SDS011;9179;50.968;3.134;2023-07-20T02:19:57;8.77;;;7.93;;
18104;SDS011;9179;50.968;3.134;2023-07-20T02:22:24;9.85;;;8.95;;
18104;SDS011;9179;50.968;3.134;2023-07-20T02:24:52;9.10;;;8.25;;
18104;SDS011;9179;50.968;3.134;2023-07-20T02:27:19;9.15;;;8.25;;
18104;SDS011;9179;50.968;3.134;2023-07-20T02:29:46;9.70;;;7.78;;
18104;SDS011;9179;50.968;3.134;2023-07-20T02:32:13;9.43;;;7.40;;
18104;SDS011;9179;50.968;3.134;2023-07-20T02:34:40;9.52;;;7.70;;
18104;SDS011;9179;50.968;3.134;2023-07-20T02:37:07;9.77;;;8.50;;
18104;SDS011;9179;50.968;3.134;2023-07-20T02:39:34;8.55;;;7.72;;
18104;SDS011;9179;50.968;3.134;2023-07-20T02:42:02;9.02;;;7.90;;
18104;SDS011;9179;50.968;3.134;2023-07-20T02:44:29;9.05;;;7.97;;
18104;SDS011;9179;50.968;3.134;2023-07-20T02:46:56;8.77;;;7.68;;
18104;SDS011;9179;50.968;3.134;2023-07-20T02:49:23;8.90;;;8.07;;
18104;SDS011;9179;50.968;3.134;2023-07-20T02:51:50;9.35;;;8.48;;
18104;SDS011;9179;50.968;3.134;2023-07-20T02:54:17;10.93;;;8.45;;
18104;SDS011;9179;50.968;3.134;2023-07-20T02:56:44;8.00;;;7.35;;
18104;SDS011;9179;50.968;3.134;2023-07-20T02:59:12;8.35;;;7.55;;
18104;SDS011;9179;50.968;3.134;2023-07-20T03:01:39;8.10;;;7.40;;
18104;SDS011;9179;50.968;3.134;2023-07-20T03:04:07;7.82;;;7.13;;
18104;SDS011;9179;50.968;3.134;2023-07-20T03:06:35;8.77;;;7.07;;
18104;SDS011;9179;50.968;3.134;2023-07-20T03:09:02;8.75;;;7.70;;
18104;SDS011;9179;50.968;3.134;2023-07-20T03:11:29;8.02;;;7.38;;
18104;SDS011;9179;50.968;3.134;2023-07-20T03:13:56;9.20;;;8.32;;
18104;SDS011;9179;50.968;3.134;2023-07-20T03:16:24;10.73;;;7.90;;
18104;SDS011;9179;50.968;3.134;2023-07-20T03:18:51;9.23;;;8.30;;
18104;SDS011;9179;50.968;3.134;2023-07-20T03:21:18;8.98;;;8.18;;
18104;SDS011;9179;50.968;3.134;2023-07-20T03:23:45;9.18;;;8.30;;
18104;SDS011;9179;50.968;3.134;2023-07-20T03:26:12;10.18;;;8.05;;
18104;SDS011;9179;50.968;3.134;2023-07-20T03:28:39;9.57;;;8.05;;
18104;SDS011;9179;50.968;3.134;2023-07-20T03:31:06;8.98;;;8.07;;
18104;SDS011;9179;50.968;3.134;2023-07-20T03:33:35;10.00;;;8.57;;
18104;SDS011;9179;50.968;3.134;2023-07-20T03:36:01;9.35;;;8.05;;
18104;SDS011;9179;50.968;3.134;2023-07-20T03:38:29;10.00;;;8.18;;
18104;SDS011;9179;50.968;3.134;2023-07-20T03:40:56;8.90;;;8.10;;
18104;SDS011;9179;50.968;3.134;2023-07-20T03:43:24;8.45;;;7.68;;
18104;SDS011;9179;50.968;3.134;2023-07-20T03:45:52;8.95;;;8.02;;
18104;SDS011;9179;50.968;3.134;2023-07-20T03:48:21;9.68;;;8.80;;
18104;SDS011;9179;50.968;3.134;2023-07-20T03:50:50;12.50;;;8.68;;
18104;SDS011;9179;50.968;3.134;2023-07-20T03:53:18;10.30;;;9.07;;
18104;SDS011;9179;50.968;3.134;2023-07-20T03:55:46;9.10;;;8.30;;
18104;SDS011;9179;50.968;3.134;2023-07-20T03:58:13;9.73;;;8.80;;
18104;SDS011;9179;50.968;3.134;2023-07-20T04:00:42;10.25;;;9.13;;
18104;SDS011;9179;50.968;3.134;2023-07-20T04:03:10;10.60;;;9.50;;
18104;SDS011;9179;50.968;3.134;2023-07-20T04:05:37;10.95;;;9.93;;
18104;SDS011;9179;50.968;3.134;2023-07-20T04:08:06;10.05;;;9.10;;
18104;SDS011;9179;50.968;3.134;2023-07-20T04:10:33;8.98;;;8.05;;
18104;SDS011;9179;50.968;3.134;2023-07-20T04:13:00;10.60;;;9.60;;
18104;SDS011;9179;50.968;3.134;2023-07-20T04:15:27;9.25;;;8.27;;
18104;SDS011;9179;50.968;3.134;2023-07-20T04:17:54;9.77;;;8.98;;
18104;SDS011;9179;50.968;3.134;2023-07-20T04:20:21;8.85;;;8.05;;
18104;SDS011;9179;50.968;3.134;2023-07-20T04:22:48;9.13;;;8.25;;
18104;SDS011;9179;50.968;3.134;2023-07-20T04:25:17;10.73;;;8.90;;
18104;SDS011;9179;50.968;3.134;2023-07-20T04:27:44;9.45;;;8.55;;
18104;SDS011;9179;50.968;3.134;2023-07-20T04:30:11;9.70;;;8.75;;
18104;SDS011;9179;50.968;3.134;2023-07-20T04:32:39;8.52;;;7.78;;
18104;SDS011;9179;50.968;3.134;2023-07-20T04:35:16;10.25;;;9.35;;
18104;SDS011;9179;50.968;3.134;2023-07-20T04:37:44;11.23;;;8.52;;
18104;SDS011;9179;50.968;3.134;2023-07-20T04:40:12;9.30;;;8.50;;
18104;SDS011;9179;50.968;3.134;2023-07-20T04:42:41;9.15;;;8.30;;
18104;SDS011;9179;50.968;3.134;2023-07-20T04:45:08;10.32;;;9.40;;
18104;SDS011;9179;50.968;3.134;2023-07-20T04:47:35;10.60;;;9.48;;
18104;SDS011;9179;50.968;3.134;2023-07-20T04:50:02;11.18;;;10.07;;
18104;SDS011;9179;50.968;3.134;2023-07-20T04:52:29;10.40;;;9.40;;
18104;SDS011;9179;50.968;3.134;2023-07-20T04:54:57;10.68;;;9.70;;
18104;SDS011;9179;50.968;3.134;2023-07-20T04:57:24;9.45;;;8.60;;
18104;SDS011;9179;50.968;3.134;2023-07-20T04:59:52;11.15;;;10.13;;
18104;SDS011;9179;50.968;3.134;2023-07-20T05:02:19;10.48;;;9.57;;
18104;SDS011;9179;50.968;3.134;2023-07-20T05:04:46;9.55;;;8.65;;
18104;SDS011;9179;50.968;3.134;2023-07-20T05:07:13;10.02;;;9.02;;
18104;SDS011;9179;50.968;3.134;2023-07-20T05:09:40;10.25;;;9.25;;
18104;SDS011;9179;50.968;3.134;2023-07-20T05:12:07;10.77;;;9.73;;
18104;SDS011;9179;50.968;3.134;2023-07-20T05:14:34;10.52;;;9.50;;
18104;SDS011;9179;50.968;3.134;2023-07-20T05:17:02;9.75;;;8.82;;
18104;SDS011;9179;50.968;3.134;2023-07-20T05:19:29;9.10;;;8.40;;
18104;SDS011;9179;50.968;3.134;2023-07-20T05:21:56;9.52;;;8.73;;
18104;SDS011;9179;50.968;3.134;2023-07-20T05:24:23;9.38;;;8.55;;
18104;SDS011;9179;50.968;3.134;2023-07-20T05:26:50;8.52;;;7.80;;
18104;SDS011;9179;50.968;3.134;2023-07-20T05:29:17;8.85;;;7.97;;
18104;SDS011;9179;50.968;3.134;2023-07-20T05:31:44;9.05;;;8.25;;
18104;SDS011;9179;50.968;3.134;2023-07-20T05:34:12;9.57;;;8.68;;
18104;SDS011;9179;50.968;3.134;2023-07-20T05:36:39;9.10;;;8.30;;
18104;SDS011;9179;50.968;3.134;2023-07-20T05:39:06;9.93;;;9.13;;
18104;SDS011;9179;50.968;3.134;2023-07-20T05:41:33;8.70;;;7.93;;
18104;SDS011;9179;50.968;3.134;2023-07-20T05:44:00;8.20;;;7.60;;
18104;SDS011;9179;50.968;3.134;2023-07-20T05:46:26;8.93;;;8.13;;
18104;SDS011;9179;50.968;3.134;2023-07-20T05:48:53;8.80;;;7.18;;
18104;SDS011;9179;50.968;3.134;2023-07-20T05:51:21;8.52;;;7.72;;
18104;SDS011;9179;50.968;3.134;2023-07-20T05:53:48;10.00;;;9.10;;
18104;SDS011;9179;50.968;3.134;2023-07-20T05:56:15;9.30;;;8.38;;
18104;SDS011;9179;50.968;3.134;2023-07-20T05:58:42;9.30;;;8.50;;
18104;SDS011;9179;50.968;3.134;2023-07-20T06:01:09;9.13;;;8.23;;
18104;SDS011;9179;50.968;3.134;2023-07-20T06:03:36;8.52;;;7.88;;
18104;SDS011;9179;50.968;3.134;2023-07-20T06:06:03;6.80;;;6.18;;
18104;SDS011;9179;50.968;3.134;2023-07-20T06:08:32;6.35;;;5.82;;
18104;SDS011;9179;50.968;3.134;2023-07-20T06:10:59;5.50;;;5.00;;
18104;SDS011;9179;50.968;3.134;2023-07-20T06:13:26;5.30;;;4.80;;
18104;SDS011;9179;50.968;3.134;2023-07-20T06:15:53;5.30;;;4.80;;
18104;SDS011;9179;50.968;3.134;2023-07-20T06:18:21;5.07;;;4.72;;
18104;SDS011;9179;50.968;3.134;2023-07-20T06:20:49;4.07;;;3.67;;
18104;SDS011;9179;50.968;3.134;2023-07-20T06:23:16;4.13;;;3.83;;
18104;SDS011;9179;50.968;3.134;2023-07-20T06:25:45;4.18;;;3.80;;
18104;SDS011;9179;50.968;3.134;2023-07-20T06:28:12;4.00;;;3.70;;
18104;SDS011;9179;50.968;3.134;2023-07-20T06:30:39;2.90;;;2.60;;
18104;SDS011;9179;50.968;3.134;2023-07-20T06:33:06;3.47;;;3.20;;
18104;SDS011;9179;50.968;3.134;2023-07-20T06:35:33;3.25;;;3.05;;
18104;SDS011;9179;50.968;3.134;2023-07-20T06:38:01;3.20;;;3.00;;
18104;SDS011;9179;50.968;3.134;2023-07-20T06:40:29;1.80;;;1.70;;
18104;SDS011;9179;50.968;3.134;2023-07-20T06:42:57;2.10;;;2.00;;
18104;SDS011;9179;50.968;3.134;2023-07-20T06:45:24;2.50;;;2.38;;
18104;SDS011;9179;50.968;3.134;2023-07-20T06:47:51;2.67;;;2.03;;
18104;SDS011;9179;50.968;3.134;2023-07-20T06:50:18;3.42;;;2.08;;
18104;SDS011;9179;50.968;3.134;2023-07-20T06:52:45;2.63;;;2.42;;
18104;SDS011;9179;50.968;3.134;2023-07-20T06:55:13;2.72;;;2.53;;
18104;SDS011;9179;50.968;3.134;2023-07-20T06:57:40;3.22;;;3.03;;
18104;SDS011;9179;50.968;3.134;2023-07-20T07:00:09;2.90;;;2.50;;
18104;SDS011;9179;50.968;3.134;2023-07-20T07:02:37;2.80;;;2.60;;
18104;SDS011;9179;50.968;3.134;2023-07-20T07:05:04;2.83;;;2.63;;
18104;SDS011;9179;50.968;3.134;2023-07-20T07:07:32;2.70;;;2.50;;
18104;SDS011;9179;50.968;3.134;2023-07-20T07:09:59;3.53;;;2.60;;
18104;SDS011;9179;50.968;3.134;2023-07-20T07:12:28;2.72;;;2.40;;
18104;SDS011;9179;50.968;3.134;2023-07-20T07:14:55;3.35;;;3.15;;
18104;SDS011;9179;50.968;3.134;2023-07-20T07:17:24;2.95;;;2.75;;
18104;SDS011;9179;50.968;3.134;2023-07-20T07:19:51;2.90;;;2.65;;
18104;SDS011;9179;50.968;3.134;2023-07-20T07:22:19;2.60;;;2.40;;
18104;SDS011;9179;50.968;3.134;2023-07-20T07:24:46;3.60;;;2.30;;
18104;SDS011;9179;50.968;3.134;2023-07-20T07:27:13;2.35;;;2.15;;
18104;SDS011;9179;50.968;3.134;2023-07-20T07:29:41;2.55;;;2.35;;
18104;SDS011;9179;50.968;3.134;2023-07-20T07:32:09;2.45;;;2.25;;
18104;SDS011;9179;50.968;3.134;2023-07-20T07:34:37;2.60;;;2.40;;
18104;SDS011;9179;50.968;3.134;2023-07-20T07:37:04;2.45;;;2.25;;
18104;SDS011;9179;50.968;3.134;2023-07-20T07:39:31;3.05;;;2.28;;
18104;SDS011;9179;50.968;3.134;2023-07-20T07:41:58;2.47;;;2.35;;
18104;SDS011;9179;50.968;3.134;2023-07-20T07:44:25;3.72;;;2.22;;
18104;SDS011;9179;50.968;3.134;2023-07-20T07:46:52;1.98;;;1.88;;
18104;SDS011;9179;50.968;3.134;2023-07-20T07:49:19;2.05;;;1.95;;
18104;SDS011;9179;50.968;3.134;2023-07-20T07:51:47;2.70;;;2.50;;
18104;SDS011;9179;50.968;3.134;2023-07-20T07:54:14;3.28;;;3.05;;
18104;SDS011;9179;50.968;3.134;2023-07-20T07:56:41;2.97;;;2.78;;
18104;SDS011;9179;50.968;3.134;2023-07-20T07:59:09;3.35;;;3.05;;
18104;SDS011;9179;50.968;3.134;2023-07-20T08:01:36;3.17;;;2.97;;
18104;SDS011;9179;50.968;3.134;2023-07-20T08:04:03;3.42;;;3.10;;
18104;SDS011;9179;50.968;3.134;2023-07-20T08:06:30;3.30;;;3.10;;
18104;SDS011;9179;50.968;3.134;2023-07-20T08:08:58;3.88;;;3.00;;
18104;SDS011;9179;50.968;3.134;2023-07-20T08:11:25;2.97;;;2.78;;
18104;SDS011;9179;50.968;3.134;2023-07-20T08:13:52;2.92;;;2.70;;
18104;SDS011;9179;50.968;3.134;2023-07-20T08:16:19;4.82;;;2.92;;
18104;SDS011;9179;50.968;3.134;2023-07-20T08:18:46;2.55;;;2.33;;
18104;SDS011;9179;50.968;3.134;2023-07-20T08:21:13;2.67;;;2.47;;
18104;SDS011;9179;50.968;3.134;2023-07-20T08:23:40;2.70;;;2.50;;
18104;SDS011;9179;50.968;3.134;2023-07-20T08:26:08;2.35;;;2.25;;
18104;SDS011;9179;50.968;3.134;2023-07-20T08:28:35;3.28;;;2.83;;
18104;SDS011;9179;50.968;3.134;2023-07-20T08:31:02;2.85;;;2.63;;
18104;SDS011;9179;50.968;3.134;2023-07-20T08:33:31;2.33;;;2.22;;
18104;SDS011;9179;50.968;3.134;2023-07-20T08:35:58;2.40;;;2.20;;
18104;SDS011;9179;50.968;3.134;2023-07-20T08:38:26;3.17;;;2.35;;
18104;SDS011;9179;50.968;3.134;2023-07-20T08:40:53;2.55;;;2.38;;
18104;SDS011;9179;50.968;3.134;2023-07-20T08:43:22;2.83;;;2.63;;
18104;SDS011;9179;50.968;3.134;2023-07-20T08:45:50;3.97;;;2.90;;
18104;SDS011;9179;50.968;3.134;2023-07-20T08:48:20;2.72;;;2.53;;
18104;SDS011;9179;50.968;3.134;2023-07-20T08:50:47;3.03;;;2.60;;
18104;SDS011;9179;50.968;3.134;2023-07-20T08:53:16;2.88;;;2.67;;
18104;SDS011;9179;50.968;3.134;2023-07-20T08:55:44;3.55;;;3.25;;
18104;SDS011;9179;50.968;3.134;2023-07-20T08:58:12;3.40;;;3.10;;
18104;SDS011;9179;50.968;3.134;2023-07-20T09:00:41;2.70;;;2.60;;
18104;SDS011;9179;50.968;3.134;2023-07-20T09:03:08;3.65;;;3.30;;
18104;SDS011;9179;50.968;3.134;2023-07-20T09:05:36;3.15;;;2.90;;
18104;SDS011;9179;50.968;3.134;2023-07-20T09:08:04;3.08;;;2.88;;
18104;SDS011;9179;50.968;3.134;2023-07-20T09:10:30;2.60;;;2.38;;
18104;SDS011;9179;50.968;3.134;2023-07-20T09:12:57;2.90;;;2.70;;
18104;SDS011;9179;50.968;3.134;2023-07-20T09:15:25;3.20;;;3.00;;
18104;SDS011;9179;50.968;3.134;2023-07-20T09:17:53;2.97;;;2.30;;
18104;SDS011;9179;50.968;3.134;2023-07-20T09:20:20;3.33;;;3.03;;
18104;SDS011;9179;50.968;3.134;2023-07-20T09:22:47;2.95;;;2.75;;
18104;SDS011;9179;50.968;3.134;2023-07-20T09:25:15;4.05;;;3.65;;
18104;SDS011;9179;50.968;3.134;2023-07-20T09:27:44;4.43;;;3.10;;
18104;SDS011;9179;50.968;3.134;2023-07-20T09:30:12;3.65;;;3.42;;
18104;SDS011;9179;50.968;3.134;2023-07-20T09:32:40;3.45;;;3.25;;
18104;SDS011;9179;50.968;3.134;2023-07-20T09:35:14;3.90;;;3.45;;
18104;SDS011;9179;50.968;3.134;2023-07-20T09:37:51;3.58;;;3.38;;
18104;SDS011;9179;50.968;3.134;2023-07-20T09:40:20;5.53;;;3.45;;
18104;SDS011;9179;50.968;3.134;2023-07-20T09:42:47;4.07;;;3.80;;
18104;SDS011;9179;50.968;3.134;2023-07-20T09:45:14;4.45;;;4.13;;
18104;SDS011;9179;50.968;3.134;2023-07-20T09:47:41;4.45;;;4.15;;
18104;SDS011;9179;50.968;3.134;2023-07-20T09:50:08;4.53;;;4.13;;
18104;SDS011;9179;50.968;3.134;2023-07-20T09:52:41;4.07;;;3.67;;
18104;SDS011;9179;50.968;3.134;2023-07-20T09:55:09;4.15;;;3.75;;
18104;SDS011;9179;50.968;3.134;2023-07-20T09:57:37;4.05;;;3.63;;
18104;SDS011;9179;50.968;3.134;2023-07-20T10:00:05;3.97;;;3.70;;
18104;SDS011;9179;50.968;3.134;2023-07-20T10:02:40;4.53;;;4.22;;
18104;SDS011;9179;50.968;3.134;2023-07-20T10:05:08;5.38;;;4.03;;
18104;SDS011;9179;50.968;3.134;2023-07-20T10:07:40;4.10;;;3.80;;
18104;SDS011;9179;50.968;3.134;2023-07-20T10:10:13;4.32;;;3.92;;
18104;SDS011;9179;50.968;3.134;2023-07-20T10:12:42;4.68;;;4.00;;
18104;SDS011;9179;50.968;3.134;2023-07-20T10:15:11;6.65;;;4.10;;
18104;SDS011;9179;50.968;3.134;2023-07-20T10:17:44;4.68;;;4.38;;
18104;SDS011;9179;50.968;3.134;2023-07-20T10:20:19;5.03;;;4.55;;
18104;SDS011;9179;50.968;3.134;2023-07-20T10:22:49;3.75;;;3.45;;
18104;SDS011;9179;50.968;3.134;2023-07-20T10:25:20;4.95;;;4.50;;
18104;SDS011;9179;50.968;3.134;2023-07-20T10:27:48;4.85;;;4.55;;
18104;SDS011;9179;50.968;3.134;2023-07-20T10:30:16;4.88;;;4.43;;
18104;SDS011;9179;50.968;3.134;2023-07-20T10:32:45;5.03;;;4.65;;
18104;SDS011;9179;50.968;3.134;2023-07-20T10:35:13;6.07;;;5.55;;
18104;SDS011;9179;50.968;3.134;2023-07-20T10:37:48;5.40;;;5.00;;
18104;SDS011;9179;50.968;3.134;2023-07-20T10:40:26;5.05;;;4.43;;
18104;SDS011;9179;50.968;3.134;2023-07-20T10:43:01;5.13;;;4.78;;
18104;SDS011;9179;50.968;3.134;2023-07-20T10:45:36;5.43;;;5.03;;
18104;SDS011;9179;50.968;3.134;2023-07-20T10:48:06;6.50;;;6.00;;
18104;SDS011;9179;50.968;3.134;2023-07-20T10:50:39;5.43;;;4.95;;
18104;SDS011;9179;50.968;3.134;2023-07-20T10:53:11;5.93;;;5.53;;
18104;SDS011;9179;50.968;3.134;2023-07-20T10:55:39;6.07;;;5.47;;
18104;SDS011;9179;50.968;3.134;2023-07-20T10:58:07;5.25;;;4.93;;
18104;SDS011;9179;50.968;3.134;2023-07-20T11:00:36;5.35;;;4.95;;
18104;SDS011;9179;50.968;3.134;2023-07-20T11:03:03;5.47;;;5.00;;
18104;SDS011;9179;50.968;3.134;2023-07-20T11:05:34;6.07;;;5.30;;
18104;SDS011;9179;50.968;3.134;2023-07-20T11:08:03;5.03;;;4.72;;
18104;SDS011;9179;50.968;3.134;2023-07-20T11:10:33;5.07;;;4.78;;
18104;SDS011;9179;50.968;3.134;2023-07-20T11:13:18;5.43;;;5.00;;
18104;SDS011;9179;50.968;3.134;2023-07-20T11:15:48;5.28;;;4.88;;
18104;SDS011;9179;50.968;3.134;2023-07-20T11:18:27;5.20;;;4.80;;
18104;SDS011;9179;50.968;3.134;2023-07-20T11:20:55;4.47;;;4.13;;
18104;SDS011;9179;50.968;3.134;2023-07-20T11:23:23;4.95;;;4.57;;
18104;SDS011;9179;50.968;3.134;2023-07-20T11:25:51;4.63;;;4.32;;
18104;SDS011;9179;50.968;3.134;2023-07-20T11:28:18;4.03;;;3.72;;
18104;SDS011;9179;50.968;3.134;2023-07-20T11:30:45;4.25;;;3.95;;
18104;SDS011;9179;50.968;3.134;2023-07-20T11:33:19;4.50;;;4.10;;
18104;SDS011;9179;50.968;3.134;2023-07-20T11:35:46;4.28;;;3.97;;
18104;SDS011;9179;50.968;3.134;2023-07-20T11:38:16;4.47;;;4.18;;
18104;SDS011;9179;50.968;3.134;2023-07-20T11:40:43;4.88;;;4.55;;
18104;SDS011;9179;50.968;3.134;2023-07-20T11:43:12;4.93;;;4.47;;
18104;SDS011;9179;50.968;3.134;2023-07-20T11:45:39;5.55;;;5.15;;
18104;SDS011;9179;50.968;3.134;2023-07-20T11:48:06;4.70;;;4.40;;
18104;SDS011;9179;50.968;3.134;2023-07-20T11:50:38;5.05;;;4.70;;
18104;SDS011;9179;50.968;3.134;2023-07-20T11:53:05;3.95;;;3.70;;
18104;SDS011;9179;50.968;3.134;2023-07-20T11:55:32;5.55;;;5.13;;
18104;SDS011;9179;50.968;3.134;2023-07-20T11:58:03;5.95;;;5.45;;
18104;SDS011;9179;50.968;3.134;2023-07-20T12:00:32;5.88;;;5.47;;
18104;SDS011;9179;50.968;3.134;2023-07-20T12:02:59;5.18;;;4.78;;
18104;SDS011;9179;50.968;3.134;2023-07-20T12:05:26;5.45;;;5.00;;
18104;SDS011;9179;50.968;3.134;2023-07-20T12:07:54;5.05;;;4.65;;
18104;SDS011;9179;50.968;3.134;2023-07-20T12:10:24;4.70;;;4.40;;
18104;SDS011;9179;50.968;3.134;2023-07-20T12:12:53;5.15;;;4.65;;
18104;SDS011;9179;50.968;3.134;2023-07-20T12:15:20;4.40;;;4.10;;
18104;SDS011;9179;50.968;3.134;2023-07-20T12:17:51;4.22;;;3.92;;
18104;SDS011;9179;50.968;3.134;2023-07-20T12:20:26;4.95;;;4.55;;
18104;SDS011;9179;50.968;3.134;2023-07-20T12:22:56;4.20;;;3.90;;
18104;SDS011;9179;50.968;3.134;2023-07-20T12:25:32;5.53;;;5.13;;
18104;SDS011;9179;50.968;3.134;2023-07-20T12:28:00;5.50;;;5.10;;
18104;SDS011;9179;50.968;3.134;2023-07-20T12:30:28;5.60;;;5.20;;
18104;SDS011;9179;50.968;3.134;2023-07-20T12:32:57;5.97;;;5.57;;
18104;SDS011;9179;50.968;3.134;2023-07-20T12:35:24;10.20;;;5.63;;
18104;SDS011;9179;50.968;3.134;2023-07-20T12:37:51;6.15;;;5.75;;
18104;SDS011;9179;50.968;3.134;2023-07-20T12:40:18;7.38;;;6.65;;
18104;SDS011;9179;50.968;3.134;2023-07-20T12:42:46;9.05;;;8.25;;
18104;SDS011;9179;50.968;3.134;2023-07-20T12:45:13;9.30;;;8.40;;
18104;SDS011;9179;50.968;3.134;2023-07-20T12:47:40;14.45;;;9.43;;
18104;SDS011;9179;50.968;3.134;2023-07-20T12:50:10;13.02;;;10.60;;
18104;SDS011;9179;50.968;3.134;2023-07-20T12:52:38;11.48;;;10.38;;
18104;SDS011;9179;50.968;3.134;2023-07-20T12:55:06;13.02;;;11.85;;
18104;SDS011;9179;50.968;3.134;2023-07-20T12:57:34;13.68;;;12.38;;
18104;SDS011;9179;50.968;3.134;2023-07-20T13:00:03;13.30;;;12.10;;
18104;SDS011;9179;50.968;3.134;2023-07-20T13:02:31;12.25;;;11.27;;
18104;SDS011;9179;50.968;3.134;2023-07-20T13:04:58;14.00;;;12.70;;
18104;SDS011;9179;50.968;3.134;2023-07-20T13:07:30;13.25;;;11.93;;
18104;SDS011;9179;50.968;3.134;2023-07-20T13:09:58;12.30;;;11.40;;
18104;SDS011;9179;50.968;3.134;2023-07-20T13:12:25;14.05;;;12.93;;
18104;SDS011;9179;50.968;3.134;2023-07-20T13:14:52;12.95;;;11.95;;
18104;SDS011;9179;50.968;3.134;2023-07-20T13:17:20;13.35;;;12.30;;
18104;SDS011;9179;50.968;3.134;2023-07-20T13:19:47;13.40;;;12.30;;
18104;SDS011;9179;50.968;3.134;2023-07-20T13:22:14;13.20;;;12.20;;
18104;SDS011;9179;50.968;3.134;2023-07-20T13:24:43;13.43;;;12.32;;
18104;SDS011;9179;50.968;3.134;2023-07-20T13:27:11;14.48;;;13.13;;
18104;SDS011;9179;50.968;3.134;2023-07-20T13:29:38;14.43;;;13.00;;
18104;SDS011;9179;50.968;3.134;2023-07-20T13:32:05;14.48;;;13.20;;
18104;SDS011;9179;50.968;3.134;2023-07-20T13:34:33;13.98;;;12.88;;
18104;SDS011;9179;50.968;3.134;2023-07-20T13:37:00;15.77;;;14.57;;
18104;SDS011;9179;50.968;3.134;2023-07-20T13:39:28;15.43;;;14.18;;
18104;SDS011;9179;50.968;3.134;2023-07-20T13:41:56;14.25;;;13.05;;
18104;SDS011;9179;50.968;3.134;2023-07-20T13:44:23;14.43;;;13.40;;
18104;SDS011;9179;50.968;3.134;2023-07-20T13:46:50;13.93;;;12.82;;
18104;SDS011;9179;50.968;3.134;2023-07-20T13:49:17;13.25;;;12.23;;
18104;SDS011;9179;50.968;3.134;2023-07-20T13:51:44;13.45;;;12.15;;
18104;SDS011;9179;50.968;3.134;2023-07-20T13:54:11;14.02;;;12.82;;
18104;SDS011;9179;50.968;3.134;2023-07-20T13:56:38;12.75;;;11.82;;
18104;SDS011;9179;50.968;3.134;2023-07-20T13:59:06;12.75;;;11.80;;
18104;SDS011;9179;50.968;3.134;2023-07-20T14:01:33;12.48;;;11.38;;
18104;SDS011;9179;50.968;3.134;2023-07-20T14:04:00;12.15;;;11.07;;
18104;SDS011;9179;50.968;3.134;2023-07-20T14:06:29;11.20;;;10.30;;
18104;SDS011;9179;50.968;3.134;2023-07-20T14:08:57;13.48;;;12.27;;
18104;SDS011;9179;50.968;3.134;2023-07-20T14:11:24;12.07;;;11.18;;
18104;SDS011;9179;50.968;3.134;2023-07-20T14:13:51;12.27;;;11.30;;
18104;SDS011;9179;50.968;3.134;2023-07-20T14:16:20;12.80;;;11.57;;
18104;SDS011;9179;50.968;3.134;2023-07-20T14:18:48;11.35;;;10.43;;
18104;SDS011;9179;50.968;3.134;2023-07-20T14:21:15;10.30;;;9.50;;
18104;SDS011;9179;50.968;3.134;2023-07-20T14:23:44;10.70;;;9.90;;
18104;SDS011;9179;50.968;3.134;2023-07-20T14:26:12;11.90;;;10.98;;
18104;SDS011;9179;50.968;3.134;2023-07-20T14:28:39;11.80;;;11.00;;
18104;SDS011;9179;50.968;3.134;2023-07-20T14:31:06;9.60;;;8.90;;
18104;SDS011;9179;50.968;3.134;2023-07-20T14:33:35;8.40;;;7.80;;
18104;SDS011;9179;50.968;3.134;2023-07-20T14:36:02;5.95;;;5.55;;
18104;SDS011;9179;50.968;3.134;2023-07-20T14:38:30;7.15;;;6.65;;
18104;SDS011;9179;50.968;3.134;2023-07-20T14:40:57;7.53;;;7.03;;
18104;SDS011;9179;50.968;3.134;2023-07-20T14:43:24;6.88;;;6.28;;
18104;SDS011;9179;50.968;3.134;2023-07-20T14:45:51;7.10;;;6.60;;
18104;SDS011;9179;50.968;3.134;2023-07-20T14:48:19;5.75;;;5.25;;
18104;SDS011;9179;50.968;3.134;2023-07-20T14:50:48;6.93;;;6.43;;
18104;SDS011;9179;50.968;3.134;2023-07-20T14:53:14;6.75;;;6.25;;
18104;SDS011;9179;50.968;3.134;2023-07-20T14:55:42;7.40;;;6.90;;
18104;SDS011;9179;50.968;3.134;2023-07-20T14:58:09;6.13;;;5.72;;
18104;SDS011;9179;50.968;3.134;2023-07-20T15:00:36;6.80;;;6.30;;
18104;SDS011;9179;50.968;3.134;2023-07-20T15:03:03;6.78;;;6.28;;
18104;SDS011;9179;50.968;3.134;2023-07-20T15:05:30;7.38;;;6.82;;